sim
Sign-in with your pilot id or email,
or register
Callsign
Passwort

Schedule Details

Flight Number: DLH2125
Departure: Dresden Airport (EDDC) at 12:10
Arrival: Munich Airport (EDDM) at 13:05
Route: Lufthansa Passenger Schedule. Enter filed route here before submitting Pirep.

Weather Information
Getting current METAR information for EDDC 242020Z 16004KT CAVOK 15/11 Q1005
Getting current METAR information for EDDM 242020Z 06005KT CAVOK 16/14 Q1003 NOSIG

Schedule Frequency

Route Map